createdAt,value
2018-12-03T00:00:27.800Z,96.12
2018-12-03T00:02:56.723Z,96.32
2018-12-03T00:05:25.998Z,96.01
2018-12-03T00:07:57.003Z,96.56
2018-12-03T00:10:26.883Z,96.46
2018-12-03T00:12:55.588Z,96.88
2018-12-03T00:15:24.786Z,97.49
2018-12-03T00:17:54.765Z,96.63
2018-12-03T00:20:23.635Z,97.33
2018-12-03T00:22:54.121Z,97.39
2018-12-03T00:25:23.643Z,97.19
2018-12-03T00:27:53.136Z,97.62
2018-12-03T00:30:22.170Z,98.23
2018-12-03T00:32:50.913Z,98.59
2018-12-03T00:35:19.603Z,98.46
2018-12-03T00:37:48.146Z,98.88
2018-12-03T00:40:17.888Z,99.29
2018-12-03T00:42:46.938Z,99.04
2018-12-03T00:45:15.676Z,99.60
2018-12-03T00:47:44.819Z,99.67
2018-12-03T00:50:13.620Z,100.00
2018-12-03T00:52:42.591Z,100.00
2018-12-03T00:55:13.696Z,100.00
2018-12-03T00:57:42.538Z,100.00
2018-12-03T01:00:12.096Z,100.00
2018-12-03T01:02:41.133Z,100.00
2018-12-03T01:05:11.126Z,100.00
2018-12-03T01:07:41.029Z,100.00
2018-12-03T01:10:11.383Z,100.00
2018-12-03T01:12:40.039Z,100.00
2018-12-03T01:15:09.849Z,100.00
2018-12-03T01:17:38.863Z,100.00
2018-12-03T01:20:08.993Z,100.00
2018-12-03T01:22:38.003Z,100.00
2018-12-03T01:25:07.280Z,100.00
2018-12-03T01:27:35.946Z,100.00
2018-12-03T01:30:05.304Z,100.00
2018-12-03T01:32:34.506Z,100.00
2018-12-03T01:35:03.438Z,100.00
2018-12-03T01:37:32.733Z,100.00
2018-12-03T01:40:01.652Z,100.00
2018-12-03T01:42:30.943Z,100.00
2018-12-03T01:44:59.926Z,100.00
2018-12-03T01:47:29.000Z,100.00
2018-12-03T01:49:58.133Z,100.00
2018-12-03T01:52:26.844Z,100.00
2018-12-03T01:54:55.821Z,100.00
2018-12-03T01:57:25.094Z,100.00
2018-12-03T01:59:53.893Z,100.00
2018-12-03T02:02:23.073Z,100.00
2018-12-03T02:04:52.312Z,100.00
2018-12-03T02:07:21.564Z,100.00
2018-12-03T02:09:51.773Z,100.00
2018-12-03T02:12:20.576Z,100.00
2018-12-03T02:14:49.760Z,100.00
2018-12-03T02:17:19.342Z,100.00
2018-12-03T02:19:48.450Z,100.00
2018-12-03T02:22:17.058Z,100.00
2018-12-03T02:24:46.484Z,100.00
2018-12-03T02:27:16.049Z,100.00
2018-12-03T02:29:44.917Z,100.00
2018-12-03T02:32:14.468Z,100.00
2018-12-03T02:34:43.763Z,100.00
2018-12-03T02:37:12.563Z,100.00
2018-12-03T02:39:41.778Z,100.00
2018-12-03T02:42:11.173Z,100.00
2018-12-03T02:44:40.100Z,100.00
2018-12-03T02:47:09.046Z,100.00
2018-12-03T02:49:37.932Z,100.00
2018-12-03T02:52:06.450Z,100.00
2018-12-03T02:54:35.420Z,100.00
2018-12-03T02:57:04.420Z,100.00
2018-12-03T02:59:33.172Z,100.00
2018-12-03T03:02:02.290Z,100.00
2018-12-03T03:04:31.560Z,100.00
2018-12-03T03:07:00.615Z,100.00
2018-12-03T03:09:29.468Z,100.00
2018-12-03T03:11:58.388Z,100.00
2018-12-03T03:14:27.273Z,100.00
2018-12-03T03:16:56.172Z,100.00
2018-12-03T03:19:24.795Z,100.00
2018-12-03T03:21:54.880Z,100.00
2018-12-03T03:24:23.762Z,100.00
2018-12-03T03:26:52.466Z,100.00
2018-12-03T03:29:21.285Z,100.00
2018-12-03T03:31:50.272Z,100.00
2018-12-03T03:34:19.203Z,100.00
2018-12-03T03:36:48.621Z,100.00
2018-12-03T03:39:17.631Z,100.00
2018-12-03T03:41:46.253Z,100.00
2018-12-03T03:44:14.864Z,100.00
2018-12-03T03:46:43.750Z,100.00
2018-12-03T03:49:12.474Z,100.00
2018-12-03T03:51:41.234Z,100.00
2018-12-03T03:54:12.142Z,100.00
2018-12-03T03:56:40.813Z,100.00
2018-12-03T03:59:09.623Z,100.00
2018-12-03T04:01:38.465Z,100.00
2018-12-03T04:04:07.324Z,100.00
2018-12-03T04:06:36.362Z,100.00
2018-12-03T04:09:06.675Z,100.00
2018-12-03T04:11:35.352Z,100.00
2018-12-03T04:14:04.081Z,100.00
2018-12-03T04:16:32.947Z,100.00
2018-12-03T04:19:01.560Z,100.00
2018-12-03T04:21:30.142Z,100.00
2018-12-03T04:23:58.964Z,100.00
2018-12-03T04:26:27.879Z,100.00
2018-12-03T04:28:56.548Z,100.00
2018-12-03T04:31:28.603Z,100.00
2018-12-03T04:33:58.152Z,100.00
2018-12-03T04:36:26.920Z,100.00
2018-12-03T04:38:55.688Z,100.00
2018-12-03T04:41:24.507Z,100.00
2018-12-03T04:43:53.241Z,100.00
2018-12-03T04:46:23.278Z,100.00
2018-12-03T04:48:53.343Z,100.00
2018-12-03T04:51:22.631Z,100.00
2018-12-03T04:53:51.644Z,100.00
2018-12-03T04:56:20.390Z,100.00
2018-12-03T04:58:49.170Z,100.00
2018-12-03T05:01:18.605Z,100.00
2018-12-03T05:03:47.253Z,100.00
2018-12-03T05:06:16.043Z,100.00
2018-12-03T05:08:44.772Z,100.00
2018-12-03T05:11:13.520Z,100.00
2018-12-03T05:13:42.101Z,100.00
2018-12-03T05:16:11.167Z,100.00
2018-12-03T05:18:39.883Z,100.00
2018-12-03T05:21:08.464Z,100.00
2018-12-03T05:23:37.386Z,100.00
2018-12-03T05:26:06.561Z,100.00
2018-12-03T05:28:35.186Z,100.00
2018-12-03T05:31:03.961Z,100.00
2018-12-03T05:33:32.619Z,100.00
2018-12-03T05:36:01.406Z,100.00
2018-12-03T05:38:30.328Z,100.00
2018-12-03T05:40:58.915Z,100.00
2018-12-03T05:43:28.328Z,100.00
2018-12-03T05:45:58.618Z,100.00
2018-12-03T05:48:28.057Z,100.00
2018-12-03T05:50:57.314Z,100.00
2018-12-03T05:53:26.509Z,100.00
2018-12-03T05:55:55.499Z,100.00
2018-12-03T05:58:24.079Z,100.00
2018-12-03T06:00:53.355Z,100.00
2018-12-03T06:03:22.253Z,100.00
2018-12-03T06:05:51.222Z,100.00
2018-12-03T06:08:20.347Z,100.00
2018-12-03T06:10:49.409Z,100.00
2018-12-03T06:13:18.690Z,100.00
2018-12-03T06:15:47.784Z,100.00
2018-12-03T06:18:16.566Z,100.00
2018-12-03T06:20:45.328Z,100.00
2018-12-03T06:23:14.414Z,100.00
2018-12-03T06:25:43.726Z,100.00
2018-12-03T06:28:12.999Z,100.00
2018-12-03T06:30:42.686Z,100.00
2018-12-03T06:33:12.199Z,100.00
2018-12-03T06:35:41.313Z,100.00
2018-12-03T06:38:15.184Z,100.00
2018-12-03T06:40:39.730Z,100.00
2018-12-03T06:43:08.342Z,100.00
2018-12-03T06:45:37.480Z,100.00
2018-12-03T06:48:06.572Z,100.00
2018-12-03T06:50:35.370Z,100.00
2018-12-03T06:53:04.992Z,100.00
2018-12-03T06:55:34.610Z,100.00
2018-12-03T06:58:04.012Z,100.00
2018-12-03T07:00:33.132Z,100.00
2018-12-03T07:03:02.089Z,100.00
2018-12-03T07:05:31.302Z,100.00
2018-12-03T07:08:00.517Z,100.00
2018-12-03T07:10:29.442Z,100.00
2018-12-03T07:12:58.674Z,100.00
2018-12-03T07:15:27.822Z,100.00
2018-12-03T07:17:56.910Z,100.00
2018-12-03T07:20:25.926Z,100.00
2018-12-03T07:22:55.270Z,100.00
2018-12-03T07:25:24.795Z,100.00
2018-12-03T07:27:53.833Z,100.00
2018-12-03T07:30:23.150Z,100.00
2018-12-03T07:32:52.070Z,100.00
2018-12-03T07:35:21.317Z,100.00
2018-12-03T07:37:51.760Z,100.00
2018-12-03T07:40:21.592Z,100.00
2018-12-03T07:42:51.940Z,100.00
2018-12-03T07:45:21.132Z,100.00
2018-12-03T07:47:50.181Z,100.00
2018-12-03T07:50:19.475Z,100.00
2018-12-03T07:52:48.549Z,100.00
2018-12-03T07:55:17.742Z,100.00
2018-12-03T07:57:46.815Z,100.00
2018-12-03T08:00:17.419Z,100.00
2018-12-03T08:02:46.811Z,100.00
2018-12-03T08:05:16.110Z,100.00
2018-12-03T08:07:45.743Z,100.00
2018-12-03T08:10:14.696Z,100.00
2018-12-03T08:12:43.867Z,100.00
2018-12-03T08:15:13.075Z,100.00
2018-12-03T08:17:41.729Z,100.00
2018-12-03T08:20:17.579Z,100.00
2018-12-03T08:22:47.608Z,100.00
2018-12-03T08:25:17.989Z,100.00
2018-12-03T08:27:49.359Z,100.00
2018-12-03T08:30:18.756Z,100.00
2018-12-03T08:32:48.132Z,100.00
2018-12-03T08:35:17.801Z,100.00
2018-12-03T08:37:46.895Z,100.00
2018-12-03T08:40:16.543Z,100.00
2018-12-03T08:42:45.207Z,100.00
2018-12-03T08:45:16.512Z,100.00
2018-12-03T08:47:45.457Z,100.00
2018-12-03T08:50:14.447Z,100.00
2018-12-03T08:52:43.457Z,100.00
2018-12-03T08:55:12.761Z,100.00
2018-12-03T08:57:41.961Z,100.00
2018-12-03T09:00:11.620Z,100.00
2018-12-03T09:02:41.039Z,100.00
2018-12-03T09:05:11.457Z,100.00
2018-12-03T09:07:41.614Z,100.00
2018-12-03T09:10:11.638Z,100.00
2018-12-03T09:12:40.514Z,100.00
2018-12-03T09:15:11.157Z,100.00
2018-12-03T09:17:39.997Z,100.00
2018-12-03T09:20:10.116Z,100.00
2018-12-03T09:22:39.343Z,100.00
2018-12-03T09:25:11.613Z,100.00
2018-12-03T09:27:40.710Z,100.00
2018-12-03T09:30:10.490Z,100.00
2018-12-03T09:32:39.364Z,100.00
2018-12-03T09:35:09.872Z,100.00
2018-12-03T09:37:39.832Z,100.00
2018-12-03T09:40:10.395Z,100.00
2018-12-03T09:42:39.376Z,100.00
2018-12-03T09:48:15.949Z,100.00
2018-12-03T09:50:45.099Z,100.00
2018-12-03T09:53:14.707Z,100.00
2018-12-03T09:55:45.185Z,100.00
2018-12-03T09:58:15.005Z,100.00
2018-12-03T10:00:43.886Z,100.00
2018-12-03T10:03:13.382Z,100.00
2018-12-03T10:05:42.713Z,100.00
2018-12-03T10:08:11.620Z,100.00
2018-12-03T10:10:40.567Z,100.00
2018-12-03T10:13:10.206Z,100.00
2018-12-03T10:18:12.665Z,100.00
2018-12-03T10:20:51.220Z,100.00
2018-12-03T10:23:23.815Z,100.00
2018-12-03T10:25:52.958Z,100.00
2018-12-03T10:28:22.135Z,100.00
2018-12-03T10:30:51.150Z,100.00
2018-12-03T10:33:19.974Z,100.00
2018-12-03T10:35:48.907Z,100.00
2018-12-03T10:38:18.354Z,100.00
2018-12-03T10:40:47.220Z,100.00
2018-12-03T10:43:16.494Z,100.00
2018-12-03T10:45:47.505Z,100.00
2018-12-03T10:48:16.350Z,100.00
2018-12-03T10:50:45.155Z,100.00
2018-12-03T10:56:23.340Z,100.00
2018-12-03T11:05:20.002Z,100.00
2018-12-03T11:07:49.096Z,100.00
2018-12-03T11:10:18.577Z,100.00
2018-12-03T11:12:48.585Z,100.00
2018-12-03T11:15:17.410Z,100.00
2018-12-03T11:17:46.254Z,100.00
2018-12-03T11:20:15.351Z,100.00
2018-12-03T11:22:52.715Z,100.00
2018-12-03T11:25:24.117Z,100.00
2018-12-03T11:27:58.475Z,100.00
2018-12-03T11:30:29.722Z,100.00
2018-12-03T11:32:59.224Z,100.00
2018-12-03T11:35:28.475Z,100.00
2018-12-03T11:38:05.854Z,100.00
2018-12-03T11:40:36.034Z,100.00
2018-12-03T11:43:06.446Z,100.00
2018-12-03T11:45:35.922Z,100.00
2018-12-03T11:48:05.032Z,100.00
2018-12-03T11:50:34.272Z,100.00
2018-12-03T11:53:03.066Z,100.00
2018-12-03T11:55:31.816Z,100.00
2018-12-03T11:58:02.305Z,100.00
2018-12-03T12:00:31.707Z,100.00
2018-12-03T12:03:00.789Z,100.00
2018-12-03T12:05:29.812Z,100.00
2018-12-03T12:08:00.914Z,100.00
2018-12-03T12:10:30.027Z,100.00
2018-12-03T12:12:59.277Z,100.00
2018-12-03T12:15:28.327Z,100.00
2018-12-03T12:17:57.109Z,100.00
2018-12-03T12:20:26.902Z,100.00
2018-12-03T12:22:55.708Z,100.00
2018-12-03T12:25:24.752Z,100.00
2018-12-03T12:27:53.530Z,100.00
2018-12-03T12:30:30.230Z,100.00
2018-12-03T12:32:59.386Z,100.00
2018-12-03T12:35:28.317Z,100.00
2018-12-03T12:37:57.242Z,100.00
2018-12-03T12:40:26.079Z,100.00
2018-12-03T12:42:55.791Z,100.00
2018-12-03T12:45:25.694Z,100.00
2018-12-03T12:47:54.754Z,100.00
2018-12-03T12:50:23.789Z,100.00
2018-12-03T12:52:52.611Z,100.00
2018-12-03T12:55:21.612Z,100.00
2018-12-03T12:57:50.571Z,100.00
2018-12-03T13:00:20.172Z,100.00
2018-12-03T13:02:51.148Z,100.00
2018-12-03T13:05:20.181Z,100.00
2018-12-03T13:07:49.237Z,100.00
2018-12-03T13:10:18.840Z,100.00
2018-12-03T13:12:47.823Z,100.00
2018-12-03T13:15:17.630Z,100.00
2018-12-03T13:17:47.246Z,100.00
2018-12-03T13:20:20.642Z,100.00
2018-12-03T13:22:51.725Z,100.00
2018-12-03T13:25:20.779Z,100.00
2018-12-03T13:27:49.880Z,100.00
2018-12-03T13:30:18.940Z,100.00
2018-12-03T13:32:48.170Z,100.00
2018-12-03T13:35:17.847Z,100.00
2018-12-03T13:37:47.215Z,100.00
2018-12-03T13:40:16.307Z,100.00
2018-12-03T13:42:46.165Z,100.00
2018-12-03T13:45:15.976Z,100.00
2018-12-03T13:47:45.219Z,100.00
2018-12-03T13:50:14.370Z,100.00
2018-12-03T13:52:44.216Z,100.00
2018-12-03T13:55:13.242Z,100.00
2018-12-03T13:57:42.065Z,100.00
2018-12-03T14:00:11.916Z,100.00
2018-12-03T14:02:41.043Z,100.00
2018-12-03T14:05:11.192Z,100.00
2018-12-03T14:07:40.593Z,100.00
2018-12-03T14:10:11.323Z,100.00
2018-12-03T14:12:40.662Z,100.00
2018-12-03T14:15:11.887Z,100.00
2018-12-03T14:17:40.835Z,100.00
2018-12-03T14:20:10.865Z,100.00
2018-12-03T14:22:39.948Z,100.00
2018-12-03T14:25:10.815Z,100.00
2018-12-03T14:27:39.768Z,100.00
2018-12-03T14:30:10.124Z,100.00
2018-12-03T14:32:39.207Z,100.00
2018-12-03T14:35:09.352Z,100.00
2018-12-03T14:37:38.664Z,100.00
2018-12-03T14:40:07.630Z,100.00
2018-12-03T14:42:36.915Z,100.00
2018-12-03T14:45:07.704Z,100.00
2018-12-03T14:47:40.070Z,100.00
2018-12-03T14:50:11.739Z,100.00
2018-12-03T14:52:41.064Z,100.00
2018-12-03T14:55:11.346Z,100.00
2018-12-03T14:57:40.920Z,100.00
2018-12-03T15:00:12.373Z,100.00
2018-12-03T15:02:41.402Z,100.00
2018-12-03T15:05:11.261Z,100.00
2018-12-03T15:07:40.099Z,100.00
2018-12-03T15:10:09.855Z,100.00
2018-12-03T15:12:39.072Z,100.00
2018-12-03T15:15:09.284Z,100.00
2018-12-03T15:17:40.398Z,100.00
2018-12-03T15:20:10.988Z,100.00
2018-12-03T15:22:40.980Z,100.00
2018-12-03T15:25:11.222Z,100.00
2018-12-03T15:27:44.303Z,100.00
2018-12-03T15:30:14.235Z,100.00
2018-12-03T15:32:43.206Z,100.00
2018-12-03T15:35:12.451Z,100.00
2018-12-03T15:37:41.777Z,100.00
2018-12-03T15:40:10.861Z,100.00
2018-12-03T15:42:39.785Z,100.00
2018-12-03T15:45:09.824Z,100.00
2018-12-03T15:47:40.277Z,100.00
2018-12-03T15:50:10.180Z,100.00
2018-12-03T15:52:39.927Z,100.00
2018-12-03T15:55:09.766Z,100.00
2018-12-03T15:57:40.762Z,100.00
2018-12-03T16:00:11.457Z,100.00
2018-12-03T16:02:40.332Z,100.00
2018-12-03T16:08:48.163Z,100.00
2018-12-03T16:17:34.893Z,100.00
2018-12-03T16:20:12.607Z,100.00
2018-12-03T16:22:42.409Z,100.00
2018-12-03T16:25:11.807Z,100.00
2018-12-03T16:27:41.189Z,100.00
2018-12-03T16:30:12.499Z,100.00
2018-12-03T16:32:41.940Z,100.00
2018-12-03T16:35:12.211Z,100.00
2018-12-03T16:37:41.765Z,100.00
2018-12-03T16:40:11.161Z,100.00
2018-12-03T16:42:40.736Z,100.00
2018-12-03T16:45:11.345Z,100.00
2018-12-03T16:47:40.420Z,100.00
2018-12-03T16:50:11.440Z,100.00
2018-12-03T16:52:42.261Z,100.00
2018-12-03T16:55:12.430Z,100.00
2018-12-03T16:57:41.818Z,100.00
2018-12-03T17:00:18.478Z,100.00
2018-12-03T17:02:47.638Z,100.00
2018-12-03T17:05:18.588Z,100.00
2018-12-03T17:07:47.952Z,100.00
2018-12-03T17:10:17.502Z,100.00
2018-12-03T17:12:47.318Z,100.00
2018-12-03T17:15:19.488Z,100.00
2018-12-03T17:17:50.931Z,100.00
2018-12-03T17:20:25.133Z,100.00
2018-12-03T17:22:55.045Z,100.00
2018-12-03T17:25:25.223Z,100.00
2018-12-03T17:27:57.621Z,100.00
2018-12-03T17:30:27.627Z,100.00
2018-12-03T17:32:56.394Z,100.00
2018-12-03T17:35:25.655Z,100.00
2018-12-03T17:37:55.501Z,100.00
2018-12-03T17:40:27.328Z,100.00
2018-12-03T17:42:57.342Z,100.00
2018-12-03T17:45:28.425Z,100.00
2018-12-03T17:47:58.892Z,100.00
2018-12-03T17:50:29.226Z,100.00
2018-12-03T17:52:58.118Z,100.00
2018-12-03T17:55:27.006Z,100.00
2018-12-03T17:57:58.985Z,100.00
2018-12-03T18:00:28.653Z,100.00
2018-12-03T18:03:00.671Z,100.00
2018-12-03T18:08:20.006Z,100.00
2018-12-03T18:10:49.801Z,100.00
2018-12-03T18:13:20.419Z,100.00
2018-12-03T18:15:50.560Z,100.00
2018-12-03T18:18:19.866Z,100.00
2018-12-03T18:20:49.944Z,100.00
2018-12-03T18:23:19.537Z,100.00
2018-12-03T18:25:50.904Z,100.00
2018-12-03T18:28:20.809Z,100.00
2018-12-03T18:30:51.379Z,100.00
2018-12-03T18:33:20.842Z,100.00
2018-12-03T18:35:50.233Z,100.00
2018-12-03T18:38:19.621Z,100.00
2018-12-03T18:40:48.866Z,100.00
2018-12-03T18:43:18.464Z,100.00
2018-12-03T18:45:47.922Z,100.00
2018-12-03T18:48:17.378Z,100.00
2018-12-03T18:50:46.442Z,100.00
2018-12-03T18:53:15.934Z,100.00
2018-12-03T18:55:45.352Z,100.00
2018-12-03T18:58:14.449Z,100.00
2018-12-03T19:00:43.981Z,100.00
2018-12-03T19:03:13.404Z,100.00
2018-12-03T19:05:42.534Z,100.00
2018-12-03T19:08:11.861Z,100.00
2018-12-03T19:10:40.905Z,100.00
2018-12-03T19:13:09.981Z,100.00
2018-12-03T19:15:40.040Z,100.00
2018-12-03T19:18:09.408Z,100.00
2018-12-03T19:20:38.419Z,100.00
2018-12-03T19:23:07.788Z,100.00
2018-12-03T19:25:38.116Z,100.00
2018-12-03T19:28:07.691Z,100.00
2018-12-03T19:30:37.401Z,100.00
2018-12-03T19:33:06.852Z,100.00
2018-12-03T19:35:39.172Z,100.00
2018-12-03T19:41:36.661Z,100.00
2018-12-03T19:44:22.465Z,100.00
2018-12-03T19:46:52.474Z,100.00
2018-12-03T19:49:22.226Z,100.00
2018-12-03T19:51:51.848Z,100.00
2018-12-03T19:54:21.586Z,100.00
2018-12-03T19:56:50.951Z,100.00
2018-12-03T19:59:20.772Z,100.00
2018-12-03T20:01:50.725Z,100.00
2018-12-03T20:04:27.027Z,100.00
2018-12-03T20:06:56.695Z,100.00
2018-12-03T20:09:29.584Z,100.00
2018-12-03T20:12:00.607Z,100.00
2018-12-03T20:14:30.772Z,100.00
2018-12-03T20:17:00.811Z,100.00
2018-12-03T20:19:30.577Z,100.00
2018-12-03T20:22:01.976Z,100.00
2018-12-03T20:24:31.834Z,100.00
2018-12-03T20:27:02.819Z,100.00
2018-12-03T20:29:32.619Z,100.00
2018-12-03T20:32:02.824Z,100.00
2018-12-03T20:34:32.478Z,100.00
2018-12-03T20:37:02.751Z,100.00
2018-12-03T20:39:35.152Z,100.00
2018-12-03T20:42:04.999Z,100.00
2018-12-03T20:44:36.480Z,100.00
2018-12-03T20:47:06.531Z,100.00
2018-12-03T20:49:36.906Z,100.00
2018-12-03T20:52:07.922Z,100.00
2018-12-03T20:54:37.917Z,100.00
2018-12-03T20:57:07.849Z,100.00
2018-12-03T20:59:37.693Z,100.00
2018-12-03T21:02:11.437Z,100.00
2018-12-03T21:04:42.157Z,100.00
2018-12-03T21:07:11.928Z,100.00
2018-12-03T21:09:41.523Z,100.00
2018-12-03T21:12:11.343Z,100.00
2018-12-03T21:14:41.350Z,100.00
2018-12-03T21:17:10.737Z,100.00
2018-12-03T21:19:40.304Z,100.00
2018-12-03T21:22:10.179Z,100.00
2018-12-03T21:24:40.074Z,100.00
2018-12-03T21:27:10.164Z,100.00
2018-12-03T21:29:40.126Z,100.00
2018-12-03T21:32:09.771Z,100.00
2018-12-03T21:34:39.102Z,100.00
2018-12-03T21:37:08.604Z,100.00
2018-12-03T21:39:37.926Z,100.00
2018-12-03T21:42:08.840Z,100.00
2018-12-03T21:44:38.720Z,100.00
2018-12-03T21:47:08.404Z,100.00
2018-12-03T21:49:38.607Z,100.00
2018-12-03T21:52:08.248Z,100.00
2018-12-03T21:54:37.382Z,100.00
2018-12-03T21:57:10.739Z,100.00
2018-12-03T21:59:36.789Z,100.00
2018-12-03T22:02:06.677Z,100.00
2018-12-03T22:04:36.958Z,100.00
2018-12-03T22:07:06.119Z,100.00
2018-12-03T22:09:43.710Z,100.00
2018-12-03T22:12:15.674Z,100.00
2018-12-03T22:14:44.883Z,100.00
2018-12-03T22:17:13.877Z,100.00
2018-12-03T22:19:42.906Z,100.00
2018-12-03T22:22:11.989Z,100.00
2018-12-03T22:24:41.134Z,100.00
2018-12-03T22:27:10.774Z,100.00
2018-12-03T22:29:40.320Z,100.00
2018-12-03T22:32:11.005Z,100.00
2018-12-03T22:34:41.041Z,100.00
2018-12-03T22:37:09.954Z,100.00
2018-12-03T22:39:40.170Z,100.00
2018-12-03T22:42:10.247Z,100.00
2018-12-03T22:44:39.850Z,100.00
2018-12-03T22:47:09.091Z,100.00
2018-12-03T22:49:38.785Z,100.00
2018-12-03T22:52:08.249Z,100.00
2018-12-03T22:54:38.147Z,100.00
2018-12-03T22:57:07.714Z,100.00
2018-12-03T22:59:37.129Z,100.00
2018-12-03T23:02:06.431Z,100.00
2018-12-03T23:04:36.034Z,100.00
2018-12-03T23:07:05.392Z,100.00
2018-12-03T23:09:34.845Z,100.00
2018-12-03T23:12:04.772Z,100.00
2018-12-03T23:14:34.457Z,100.00
2018-12-03T23:17:03.584Z,100.00
2018-12-03T23:19:32.561Z,100.00
2018-12-03T23:22:01.547Z,100.00
2018-12-03T23:24:30.544Z,100.00
2018-12-03T23:26:59.508Z,100.00
2018-12-03T23:29:28.471Z,100.00
2018-12-03T23:31:57.691Z,100.00
2018-12-03T23:34:27.305Z,100.00
2018-12-03T23:36:56.723Z,100.00
2018-12-03T23:39:25.425Z,100.00
2018-12-03T23:41:54.239Z,100.00
2018-12-03T23:44:23.541Z,100.00
2018-12-03T23:46:52.886Z,100.00
2018-12-03T23:49:27.998Z,100.00
2018-12-03T23:52:16.508Z,100.00
2018-12-03T23:55:25.818Z,100.00
2018-12-03T23:58:02.644Z,100.00
